createdAt,value
2023-01-17T00:00:23.040Z,87.70
2023-01-17T00:03:05.641Z,89.88
2023-01-17T00:06:05.967Z,92.10
2023-01-17T00:09:12.624Z,92.85
2023-01-17T00:11:54.780Z,90.93
2023-01-17T00:14:43.598Z,91.15
2023-01-17T00:17:27.565Z,93.78
2023-01-17T00:20:34.676Z,99.43
2023-01-17T00:23:38.120Z,98.35
2023-01-17T00:26:32.654Z,135.95
2023-01-17T00:29:14.585Z,155.50
2023-01-17T00:32:04.721Z,124.88
2023-01-17T00:34:52.678Z,118.32
2023-01-17T00:37:35.654Z,112.22
2023-01-17T00:40:24.655Z,105.45
2023-01-17T00:43:25.679Z,97.57
2023-01-17T00:46:39.465Z,102.68
2023-01-17T00:49:46.700Z,94.50
2023-01-17T00:52:47.457Z,98.93
2023-01-17T00:55:54.494Z,96.20
2023-01-17T00:58:55.464Z,107.07
2023-01-17T01:02:02.755Z,100.85
2023-01-17T01:05:03.333Z,106.97
2023-01-17T01:08:11.478Z,101.50
2023-01-17T01:11:13.498Z,118.50
2023-01-17T01:14:24.480Z,115.43
2023-01-17T01:17:31.657Z,100.68
2023-01-17T01:20:39.331Z,102.35
2023-01-17T01:23:40.559Z,93.72
2023-01-17T01:26:48.138Z,97.13
2023-01-17T01:29:48.603Z,96.65
2023-01-17T01:32:55.319Z,94.25
2023-01-17T01:35:37.662Z,94.25
2023-01-17T01:38:27.911Z,101.10
2023-01-17T01:41:10.735Z,90.20
2023-01-17T01:44:02.839Z,96.07
2023-01-17T01:46:57.636Z,94.70
2023-01-17T01:49:39.925Z,101.72
2023-01-17T01:52:30.556Z,94.32
2023-01-17T01:55:27.063Z,96.35
2023-01-17T01:58:17.588Z,110.57
2023-01-17T02:01:07.387Z,89.22
2023-01-17T02:03:50.589Z,103.68
2023-01-17T02:06:43.604Z,98.15
2023-01-17T02:09:26.887Z,104.80
2023-01-17T02:12:16.504Z,111.03
2023-01-17T02:14:58.818Z,119.35
2023-01-17T02:18:22.533Z,111.93
2023-01-17T02:21:24.563Z,133.68
2023-01-17T02:24:45.581Z,134.07
2023-01-17T02:27:57.558Z,143.55
2023-01-17T02:31:00.509Z,130.63
2023-01-17T02:34:21.492Z,143.80
2023-01-17T02:37:32.606Z,125.63
2023-01-17T02:40:45.548Z,130.98
2023-01-17T02:43:29.869Z,134.05
2023-01-17T02:46:34.648Z,137.65
2023-01-17T02:49:19.449Z,135.48
2023-01-17T02:52:47.592Z,124.93
2023-01-17T02:55:42.495Z,130.82
2023-01-17T02:58:30.940Z,126.18
2023-01-17T03:01:57.737Z,126.13
2023-01-17T03:05:13.659Z,139.90
2023-01-17T03:07:56.509Z,143.00
2023-01-17T03:10:49.475Z,135.25
2023-01-17T03:13:32.050Z,133.85
2023-01-17T03:16:28.590Z,133.15
2023-01-17T03:19:10.959Z,132.98
2023-01-17T03:21:59.534Z,128.48
2023-01-17T03:24:41.770Z,138.25
2023-01-17T03:27:30.542Z,137.73
2023-01-17T03:30:13.494Z,138.10
2023-01-17T03:35:53.545Z,121.95
2023-01-17T03:38:44.642Z,116.90
2023-01-17T03:41:33.899Z,115.20
2023-01-17T03:44:16.665Z,114.53
2023-01-17T03:47:11.444Z,103.43
2023-01-17T03:50:00.588Z,108.47
2023-01-17T03:52:42.841Z,102.47
2023-01-17T03:55:31.615Z,112.32
2023-01-17T03:58:20.702Z,106.47
2023-01-17T04:01:11.439Z,91.88
2023-01-17T04:04:06.617Z,84.47
2023-01-17T04:06:49.149Z,89.03
2023-01-17T04:09:41.523Z,90.07
2023-01-17T04:12:24.055Z,86.22
2023-01-17T04:15:12.613Z,81.15
2023-01-17T04:18:07.489Z,77.68
2023-01-17T04:20:56.532Z,73.97
2023-01-17T04:23:38.852Z,69.28
2023-01-17T04:26:27.578Z,63.15
2023-01-17T04:29:16.417Z,55.45
2023-01-17T04:32:05.554Z,52.72
2023-01-17T04:34:54.469Z,56.85
2023-01-17T04:37:43.906Z,61.47
2023-01-17T04:40:26.668Z,58.58
2023-01-17T04:43:08.743Z,49.50
2023-01-17T04:45:58.551Z,46.05
2023-01-17T04:48:46.864Z,55.40
2023-01-17T04:51:28.566Z,52.42
2023-01-17T04:54:10.849Z,51.08
2023-01-17T04:56:59.639Z,54.78
2023-01-17T04:59:41.890Z,48.58
2023-01-17T05:02:30.614Z,46.22
2023-01-17T05:05:18.801Z,51.95
2023-01-17T05:08:05.568Z,50.13
2023-01-17T05:10:55.485Z,50.92
2023-01-17T05:13:37.890Z,52.42
2023-01-17T05:16:27.485Z,54.63
2023-01-17T05:19:09.833Z,56.53
2023-01-17T05:21:58.536Z,51.88
2023-01-17T05:24:40.799Z,57.45
2023-01-17T05:27:29.407Z,46.67
2023-01-17T05:30:18.526Z,41.97
2023-01-17T05:33:00.802Z,46.50
2023-01-17T05:35:42.617Z,35.45
2023-01-17T05:38:25.024Z,41.47
2023-01-17T05:41:13.582Z,37.75
2023-01-17T05:43:55.823Z,32.80
2023-01-17T05:46:44.600Z,35.05
2023-01-17T05:49:32.896Z,50.03
2023-01-17T05:52:14.572Z,41.78
2023-01-17T05:54:56.752Z,43.08
2023-01-17T05:57:45.552Z,37.70
2023-01-17T06:00:28.169Z,40.50
2023-01-17T06:03:16.904Z,41.30
2023-01-17T06:06:04.898Z,34.53
2023-01-17T06:08:46.526Z,35.40
2023-01-17T06:11:34.852Z,33.88
2023-01-17T06:14:16.524Z,26.88
2023-01-17T06:16:58.775Z,30.08
2023-01-17T06:19:47.620Z,27.60
2023-01-17T06:22:29.771Z,33.47
2023-01-17T06:25:18.449Z,28.40
2023-01-17T06:28:09.907Z,28.75
2023-01-17T06:30:52.610Z,31.85
2023-01-17T06:33:41.640Z,33.63
2023-01-17T06:36:25.415Z,31.52
2023-01-17T06:39:15.182Z,33.53
2023-01-17T06:41:57.840Z,38.53
2023-01-17T06:44:46.409Z,33.05
2023-01-17T06:47:35.614Z,32.50
2023-01-17T06:50:18.044Z,24.55
2023-01-17T06:53:15.517Z,72.35
2023-01-17T06:56:01.112Z,29.30
2023-01-17T06:58:50.458Z,27.33
2023-01-17T07:01:39.700Z,28.85
2023-01-17T07:04:21.850Z,24.30
2023-01-17T07:07:10.559Z,21.98
2023-01-17T07:09:52.812Z,23.70
2023-01-17T07:12:41.482Z,26.95
2023-01-17T07:15:30.589Z,22.65
2023-01-17T07:18:24.322Z,31.88
2023-01-17T07:21:07.511Z,35.67
2023-01-17T07:23:49.975Z,20.05
2023-01-17T07:26:38.615Z,18.52
2023-01-17T07:29:21.026Z,20.80
2023-01-17T07:32:10.552Z,22.75
2023-01-17T07:34:59.487Z,18.60
2023-01-17T07:37:41.811Z,16.73
2023-01-17T07:40:31.145Z,18.45
2023-01-17T07:43:21.407Z,22.65
2023-01-17T07:46:10.478Z,23.27
2023-01-17T07:48:58.771Z,24.02
2023-01-17T07:51:40.526Z,11.48
2023-01-17T07:54:28.806Z,13.80
2023-01-17T07:57:11.469Z,19.10
2023-01-17T07:59:54.057Z,13.02
2023-01-17T08:02:42.453Z,16.73
2023-01-17T08:05:25.378Z,19.38
2023-01-17T08:08:15.934Z,18.73
2023-01-17T08:11:05.855Z,18.55
2023-01-17T08:13:49.521Z,20.70
2023-01-17T08:16:38.510Z,34.70
2023-01-17T08:19:20.812Z,25.90
2023-01-17T08:22:09.599Z,29.40
2023-01-17T08:24:51.917Z,24.50
2023-01-17T08:27:40.675Z,29.88
2023-01-17T08:30:22.995Z,42.35
2023-01-17T08:33:11.492Z,30.10
2023-01-17T08:36:03.871Z,29.45
2023-01-17T08:38:53.011Z,33.63
2023-01-17T08:41:34.846Z,33.78
2023-01-17T08:44:23.819Z,27.70
2023-01-17T08:47:18.436Z,33.65
2023-01-17T08:50:08.422Z,31.08
2023-01-17T08:52:50.970Z,41.67
2023-01-17T08:55:40.583Z,31.92
2023-01-17T08:58:30.861Z,29.02
2023-01-17T09:01:19.601Z,25.80
2023-01-17T09:04:08.542Z,26.13
2023-01-17T09:06:58.631Z,32.03
2023-01-17T09:09:40.459Z,21.30
2023-01-17T09:12:30.532Z,21.90
2023-01-17T09:15:15.640Z,22.52
2023-01-17T09:18:05.493Z,23.95
2023-01-17T09:20:47.836Z,25.52
2023-01-17T09:23:38.504Z,30.50
2023-01-17T09:26:35.871Z,22.13
2023-01-17T09:29:26.573Z,20.88
2023-01-17T09:32:08.805Z,14.85
2023-01-17T09:34:57.477Z,19.38
2023-01-17T09:37:39.872Z,17.42
2023-01-17T09:40:32.586Z,21.65
2023-01-17T09:43:29.947Z,16.87
2023-01-17T09:46:35.494Z,14.85
2023-01-17T09:49:30.800Z,18.23
2023-01-17T09:52:15.597Z,16.95
2023-01-17T09:54:57.750Z,19.75
2023-01-17T09:58:10.547Z,14.63
2023-01-17T10:01:01.899Z,21.60
2023-01-17T10:04:22.512Z,23.15
2023-01-17T10:07:41.388Z,17.83
2023-01-17T10:10:56.150Z,21.25
2023-01-17T10:14:12.487Z,19.65
2023-01-17T10:17:10.957Z,22.05
2023-01-17T10:20:11.482Z,16.73
2023-01-17T10:23:04.963Z,20.20
2023-01-17T10:26:01.505Z,18.27
2023-01-17T10:28:55.389Z,13.32
2023-01-17T10:31:59.424Z,12.63
2023-01-17T10:34:59.495Z,18.67
2023-01-17T10:37:43.824Z,20.42
2023-01-17T10:40:36.541Z,16.35
2023-01-17T10:43:24.858Z,20.17
2023-01-17T10:46:13.536Z,17.80
2023-01-17T10:49:04.839Z,23.35
2023-01-17T10:51:57.433Z,18.88
2023-01-17T10:54:48.106Z,13.20
2023-01-17T10:57:39.489Z,18.17
2023-01-17T11:00:54.510Z,16.52
2023-01-17T11:03:43.535Z,19.20
2023-01-17T11:06:37.900Z,22.20
2023-01-17T11:09:25.896Z,19.20
2023-01-17T11:12:23.587Z,17.42
2023-01-17T11:15:33.064Z,19.23
2023-01-17T11:18:27.568Z,22.60
2023-01-17T11:21:30.797Z,22.98
2023-01-17T11:24:27.562Z,20.27
2023-01-17T11:27:12.824Z,13.60
2023-01-17T11:30:25.416Z,21.52
2023-01-17T11:33:17.449Z,22.55
2023-01-17T11:36:00.139Z,22.58
2023-01-17T11:38:49.519Z,19.60
2023-01-17T11:41:56.542Z,18.67
2023-01-17T11:44:41.738Z,22.02
2023-01-17T11:47:30.587Z,15.18
2023-01-17T11:50:32.932Z,17.27
2023-01-17T11:53:27.526Z,19.42
2023-01-17T11:56:25.799Z,16.25
2023-01-17T11:59:37.644Z,24.13
2023-01-17T12:03:01.779Z,22.35
2023-01-17T12:06:09.972Z,15.20
2023-01-17T12:09:18.513Z,24.35
2023-01-17T12:12:47.229Z,23.05
2023-01-17T12:15:48.653Z,24.00
2023-01-17T12:18:44.172Z,30.65
2023-01-17T12:21:49.533Z,26.48
2023-01-17T12:25:03.427Z,28.33
2023-01-17T12:28:19.637Z,25.45
2023-01-17T12:31:36.131Z,34.97
2023-01-17T12:34:30.520Z,35.58
2023-01-17T12:37:44.483Z,42.22
2023-01-17T12:40:52.547Z,47.13
2023-01-17T12:43:52.360Z,39.97
2023-01-17T12:47:10.806Z,38.55
2023-01-17T12:50:27.740Z,43.75
2023-01-17T12:53:48.424Z,50.35
2023-01-17T12:56:47.170Z,46.45
2023-01-17T13:00:19.808Z,44.88
2023-01-17T13:03:48.827Z,36.65
2023-01-17T13:06:41.418Z,34.42
2023-01-17T13:09:31.389Z,54.20
2023-01-17T13:12:29.417Z,45.28
2023-01-17T13:15:27.513Z,44.45
2023-01-17T13:18:26.831Z,41.42
2023-01-17T13:21:40.514Z,42.92
2023-01-17T13:25:05.777Z,47.30
2023-01-17T13:28:15.463Z,51.80
2023-01-17T13:31:36.578Z,57.60
2023-01-17T13:34:18.642Z,48.88
2023-01-17T13:37:52.485Z,48.97
2023-01-17T13:40:40.461Z,69.63
2023-01-17T13:43:40.504Z,60.47
2023-01-17T13:46:22.980Z,73.60
2023-01-17T13:49:45.884Z,74.68
2023-01-17T13:52:33.941Z,72.18
2023-01-17T13:55:16.413Z,72.38
2023-01-17T13:58:04.776Z,78.10
2023-01-17T14:00:53.492Z,69.22
2023-01-17T14:03:53.766Z,71.55
2023-01-17T14:06:52.408Z,75.70
2023-01-17T14:09:51.795Z,91.63
2023-01-17T14:12:39.543Z,93.97
2023-01-17T14:15:34.471Z,73.32
2023-01-17T14:18:53.547Z,77.70
2023-01-17T14:21:41.795Z,73.78
2023-01-17T14:24:26.504Z,93.57
2023-01-17T14:27:31.522Z,90.75
2023-01-17T14:30:24.749Z,103.38
2023-01-17T14:33:38.402Z,83.43
2023-01-17T14:36:38.497Z,86.53
2023-01-17T14:39:24.380Z,100.00
2023-01-17T14:42:13.473Z,91.82
2023-01-17T14:45:11.779Z,96.63
2023-01-17T14:48:01.625Z,98.78
2023-01-17T14:50:48.797Z,89.47
2023-01-17T14:53:41.493Z,95.70
2023-01-17T14:56:24.779Z,97.30
2023-01-17T14:59:27.608Z,99.38
2023-01-17T15:02:16.593Z,89.45
2023-01-17T15:05:05.809Z,104.70
2023-01-17T15:07:48.464Z,94.10
2023-01-17T15:10:33.557Z,92.57
2023-01-17T15:13:38.807Z,95.07
2023-01-17T15:16:39.079Z,99.00
2023-01-17T15:19:22.484Z,97.93
2023-01-17T15:22:10.796Z,98.72
2023-01-17T15:24:54.471Z,102.07
2023-01-17T15:27:36.855Z,84.85
2023-01-17T15:30:32.395Z,79.38
2023-01-17T15:33:28.522Z,95.20
2023-01-17T15:36:46.441Z,101.45
2023-01-17T15:39:41.522Z,111.55
2023-01-17T15:42:36.723Z,101.10
2023-01-17T15:45:29.521Z,91.65
2023-01-17T15:48:52.341Z,97.07
2023-01-17T15:51:46.423Z,95.55
2023-01-17T15:54:56.926Z,115.18
2023-01-17T15:57:46.421Z,111.97
2023-01-17T16:00:39.306Z,111.72
2023-01-17T16:03:28.380Z,120.80
2023-01-17T16:06:17.494Z,98.82
2023-01-17T16:09:06.532Z,98.88
2023-01-17T16:11:48.805Z,114.82
2023-01-17T16:14:59.259Z,107.07
2023-01-17T16:17:41.765Z,98.70
2023-01-17T16:20:34.495Z,114.15
2023-01-17T16:23:18.892Z,128.05
2023-01-17T16:26:07.493Z,113.13
2023-01-17T16:28:56.478Z,114.93
2023-01-17T16:31:38.719Z,113.60
2023-01-17T16:34:27.530Z,113.60
2023-01-17T16:37:21.915Z,115.28
2023-01-17T16:40:10.656Z,120.53
2023-01-17T16:42:52.917Z,116.90
2023-01-17T16:45:41.493Z,107.07
2023-01-17T16:48:30.718Z,120.97
2023-01-17T16:51:16.457Z,129.55
2023-01-17T16:54:05.428Z,122.35
2023-01-17T16:56:47.848Z,123.45
2023-01-17T16:59:49.832Z,122.78
2023-01-17T17:02:39.552Z,121.63
2023-01-17T17:05:28.475Z,120.50
2023-01-17T17:08:10.825Z,130.70
2023-01-17T17:10:59.483Z,112.18
2023-01-17T17:13:44.812Z,110.22
2023-01-17T17:16:40.511Z,132.02
2023-01-17T17:19:24.000Z,124.47
2023-01-17T17:22:14.497Z,134.10
2023-01-17T17:24:56.763Z,129.75
2023-01-17T17:27:45.526Z,131.95
2023-01-17T17:30:28.410Z,122.50
2023-01-17T17:33:20.297Z,122.32
2023-01-17T17:36:09.478Z,134.82
2023-01-17T17:38:55.314Z,132.02
2023-01-17T17:41:47.394Z,135.82
2023-01-17T17:44:36.856Z,120.75
2023-01-17T17:47:20.502Z,135.77
2023-01-17T17:50:15.277Z,126.80
2023-01-17T17:53:04.496Z,137.43
2023-01-17T17:55:46.681Z,144.85
2023-01-17T17:58:35.506Z,144.13
2023-01-17T18:01:17.825Z,137.38
2023-01-17T18:04:10.529Z,144.48
2023-01-17T18:06:53.809Z,144.90
2023-01-17T18:09:42.497Z,140.27
2023-01-17T18:12:24.847Z,141.52
2023-01-17T18:15:13.532Z,143.45
2023-01-17T18:17:57.091Z,134.48
2023-01-17T18:20:46.449Z,152.50
2023-01-17T18:23:28.822Z,152.00
2023-01-17T18:26:32.429Z,143.07
2023-01-17T18:34:48.664Z,142.23
2023-01-17T18:37:37.503Z,154.32
2023-01-17T18:40:20.889Z,151.20
2023-01-17T18:43:09.448Z,142.60
2023-01-17T18:45:51.766Z,144.25
2023-01-17T18:48:40.542Z,141.95
2023-01-17T18:51:25.696Z,142.15
2023-01-17T18:54:16.505Z,139.23
2023-01-17T18:57:05.434Z,153.60
2023-01-17T18:59:47.689Z,142.85
2023-01-17T19:02:36.407Z,144.35
2023-01-17T19:05:25.845Z,154.48
2023-01-17T19:08:07.425Z,155.20
2023-01-17T19:10:55.853Z,143.52
2023-01-17T19:13:40.383Z,167.38
2023-01-17T19:16:32.836Z,220.23
2023-01-17T19:19:21.394Z,221.73
2023-01-17T19:22:09.724Z,183.25
2023-01-17T19:24:52.471Z,179.60
2023-01-17T19:27:42.848Z,166.40
2023-01-17T19:30:25.386Z,188.38
2023-01-17T19:33:08.029Z,169.10
2023-01-17T19:35:56.362Z,163.25
2023-01-17T19:38:39.118Z,192.65
2023-01-17T19:41:58.440Z,175.82
2023-01-17T19:44:47.483Z,155.57
2023-01-17T19:47:36.490Z,176.85
2023-01-17T19:50:25.718Z,181.98
2023-01-17T19:53:07.405Z,163.52
2023-01-17T19:55:49.682Z,159.02
2023-01-17T19:58:39.419Z,172.73
2023-01-17T20:01:40.602Z,186.30
2023-01-17T20:04:22.610Z,192.32
2023-01-17T20:07:11.422Z,193.18
2023-01-17T20:09:59.798Z,174.48
2023-01-17T20:12:41.420Z,190.07
2023-01-17T20:15:31.413Z,197.40
2023-01-17T20:18:13.689Z,196.20
2023-01-17T20:21:02.402Z,209.93
2023-01-17T20:23:48.066Z,185.18
2023-01-17T20:26:43.417Z,191.95
2023-01-17T20:29:33.474Z,226.55
2023-01-17T20:32:15.544Z,213.82
2023-01-17T20:35:04.397Z,198.73
2023-01-17T20:37:46.604Z,196.55
2023-01-17T20:40:35.461Z,192.85
2023-01-17T20:43:23.830Z,196.90
2023-01-17T20:46:05.503Z,183.32
2023-01-17T20:49:03.267Z,192.15
2023-01-17T20:51:53.391Z,184.82
2023-01-17T20:54:36.641Z,174.02
2023-01-17T20:57:25.405Z,197.00
2023-01-17T21:00:14.437Z,171.30
2023-01-17T21:02:56.650Z,198.23
2023-01-17T21:05:45.365Z,195.77
2023-01-17T21:08:34.398Z,198.00
2023-01-17T21:11:18.858Z,207.68
2023-01-17T21:14:07.395Z,229.25
2023-01-17T21:16:51.200Z,225.95
2023-01-17T21:19:40.391Z,232.00
2023-01-17T21:22:22.710Z,228.20
2023-01-17T21:25:11.419Z,217.95
2023-01-17T21:28:00.418Z,211.98
2023-01-17T21:30:42.602Z,206.30
2023-01-17T21:33:32.465Z,202.30
2023-01-17T21:36:15.096Z,201.02
2023-01-17T21:39:12.451Z,203.00
2023-01-17T21:42:01.691Z,192.55
2023-01-17T21:44:44.381Z,195.43
2023-01-17T21:47:33.377Z,178.35
2023-01-17T21:50:32.725Z,186.82
2023-01-17T21:53:17.373Z,190.05
2023-01-17T21:56:25.575Z,197.25
2023-01-17T21:59:15.393Z,187.10
2023-01-17T22:02:03.633Z,195.18
2023-01-17T22:04:46.427Z,203.88
2023-01-17T22:07:30.045Z,200.82
2023-01-17T22:10:20.390Z,207.70
2023-01-17T22:13:02.604Z,194.27
2023-01-17T22:15:51.468Z,190.98
2023-01-17T22:18:43.366Z,183.85
2023-01-17T22:21:36.391Z,186.10
2023-01-17T22:24:24.674Z,220.03
2023-01-17T22:27:06.428Z,216.23
2023-01-17T22:29:48.515Z,200.90
2023-01-17T22:32:37.384Z,206.15
2023-01-17T22:35:19.567Z,198.82
2023-01-17T22:38:09.398Z,197.73
2023-01-17T22:40:58.341Z,195.25
2023-01-17T22:43:40.724Z,202.18
2023-01-17T22:46:32.443Z,193.90
2023-01-17T22:49:15.070Z,184.63
2023-01-17T22:52:04.344Z,193.82
2023-01-17T22:54:46.638Z,198.10
2023-01-17T22:57:35.436Z,185.00
2023-01-17T23:00:25.336Z,180.77
2023-01-17T23:03:14.487Z,178.90
2023-01-17T23:05:56.675Z,176.70
2023-01-17T23:08:48.667Z,177.52
2023-01-17T23:11:42.664Z,167.43
2023-01-17T23:14:32.434Z,170.40
2023-01-17T23:17:34.860Z,178.15
2023-01-17T23:20:23.320Z,170.63
2023-01-17T23:23:05.721Z,182.98
2023-01-17T23:25:54.374Z,162.27
2023-01-17T23:28:43.443Z,173.27
2023-01-17T23:31:32.492Z,156.80
2023-01-17T23:34:14.665Z,155.75
2023-01-17T23:37:03.337Z,169.32
2023-01-17T23:39:45.657Z,164.18
2023-01-17T23:42:52.274Z,163.32
2023-01-17T23:45:34.705Z,165.38
2023-01-17T23:48:24.445Z,154.88
2023-01-17T23:51:20.299Z,169.65
2023-01-17T23:54:13.351Z,159.02
2023-01-17T23:57:02.432Z,162.18
2023-01-17T23:59:50.595Z,168.98
